Список аэропортов
Фактическая погода:

25 июня, 00:30
Температура: +13°C (+12.1*)
Ветер: сев.-восточный 3 м/с
Давление: *760 мм
неб. облачность
кучево-дождевые 900 м
Время (МСК)Темп. СВетерВлажностьДавлениеОблачностьОсадки
20:00+17С, 1 м/с74%1014 гПаясно
21:00+15С, 1 м/с85%1014 гПас прояснениями
22:00+14С, 1 м/с93%1014 гПас прояснениями
23:00+13С, 1 м/с91%1014 гПаоблачно
25 июня
00:00+13С, 2 м/с95%1014 гПаоблачнодождь
01:00+12С, 2 м/с95%1013 гПаоблачнодождь
02:00+12С, 2 м/с96%1013 гПаоблачнодождь
03:00+12СВ, 2 м/с95%1013 гПамалооблачносл. дождь
04:00+13СВ, 3 м/с92%1012 гПамалооблачно
05:00+14СВ, 2 м/с92%1012 гПаоблачно
06:00+16С, 1 м/с87%1012 гПаоблачно
07:00+18С, 1 м/с73%1012 гПаоблачно
08:00+20СВ, 1 м/с63%1012 гПаоблачно
09:00+23СВ, 2 м/с58%1012 гПаясно
10:00+24В, 1 м/с54%1012 гПамалооблачно
11:00+26В, 1 м/с51%1011 гПаоблачно
12:00+28Ю, 1 м/с48%1011 гПаоблачно
13:00+26ЮЗ, 1 м/с55%1011 гПаоблачно
14:00+26СЗ, 1 м/с56%1011 гПаоблачносл. дождь
15:00+28З, 1 м/с50%1011 гПас прояснениями
16:00+27З, 2 м/с50%1011 гПаоблачно
17:00+26З, 2 м/с55%1011 гПаоблачно
18:00+24З, 2 м/с60%1011 гПаоблачно
19:00+20З, 3 м/с87%1011 гПаоблачнодождь
20:00+17З, 2 м/с96%1011 гПаоблачнодождь
21:00+16З, 2 м/с97%1012 гПаоблачнодождь
22:00+15ЮЗ, 2 м/с97%1012 гПаоблачнодождь
23:00+14З, 3 м/с98%1012 гПас прояснениямидождь
26 июня
00:00+13З, 2 м/с98%1012 гПаоблачно
01:00+13ЮЗ, 2 м/с98%1013 гПаоблачно
02:00+13ЮЗ, 2 м/с99%1013 гПаоблачно
03:00+13ЮЗ, 2 м/с99%1013 гПаоблачно
04:00+13ЮЗ, 2 м/с98%1014 гПаоблачно
05:00+14ЮЗ, 2 м/с97%1014 гПаоблачно
06:00+14ЮЗ, 3 м/с94%1015 гПаоблачно
07:00+14З, 3 м/с91%1015 гПас прояснениями
08:00+16З, 3 м/с80%1015 гПас прояснениями
09:00+17З, 3 м/с68%1015 гПас прояснениями
10:00+18З, 3 м/с60%1016 гПамалооблачно
11:00+19З, 3 м/с52%1016 гПаясно
12:00+20З, 3 м/с48%1016 гПаясно
13:00+20З, 3 м/с48%1016 гПаясно
14:00+21З, 3 м/с48%1016 гПаясно
15:00+21СЗ, 2 м/с46%1016 гПаясно
16:00+21СЗ, 1 м/с48%1016 гПамалооблачно
17:00+21ЮЗ, 1 м/с51%1016 гПас прояснениями
18:00+20ЮЗ, 1 м/с58%1016 гПаоблачно
19:00+19ЮЗ, 1 м/с68%1016 гПамалооблачно
20:00+18Ю, 1 м/с75%1016 гПамалооблачно